Time;durP1;ratioP1;P1;durP2;ratioP2;P2;SDS_P1;SDS_P2;PMS_P1;PMS_P2;Temp;Humidity;BMP_temperature;BMP_pressure;BME280_temperature;BME280_humidity;BME280_pressure;Samples;Min_cycle;Max_cycle;Signal;HPM_P1;HPM_P2
2022/02/03 19:59:06;;;;;;;5.35;2.83;;;;;;;;;;1728771;82;21543;-70
2022/02/03 20:05:48;;;;;;;7.00;4.35;;;;;;;;;;1722596;83;21066;-68
2022/02/03 20:10:38;;;;;;;4.85;3.05;;;;;;;;;;1722425;82;21654;-68
2022/02/03 20:13:01;;;;;;;10.28;5.53;;;;;;;;;;1725673;83;21055;-68
2022/02/03 20:15:30;;;;;;;4.80;2.95;;;;;;;;;;1722412;83;21456;-68
2022/02/03 20:17:56;;;;;;;6.72;3.70;;;;;;;;;;1725818;83;21558;-68
2022/02/03 20:20:22;;;;;;;6.70;3.58;;;;;;;;;;1710366;83;21692;-68
2022/02/03 20:22:50;;;;;;;8.75;5.37;;;;;;;;;;1721725;82;21063;-68
2022/02/03 20:25:16;;;;;;;9.35;4.22;;;;;;;;;;1722375;82;21016;-68
2022/02/03 20:28:33;;;;;;;6.22;3.62;;;;;;;;;;1814547;79;23855;-69
2022/02/03 20:31:00;;;;;;;4.83;2.77;;;;;;;;;;1766101;80;52017;-70
2022/02/03 20:33:26;;;;;;;6.25;3.60;;;;;;;;;;1755466;82;22107;-70
2022/02/03 20:35:52;;;;;;;8.43;3.52;;;;;;;;;;1668188;82;1683436;-71
2022/02/03 20:38:18;;;;;;;5.12;3.62;;;;;;;;;;1738730;82;21012;-68
2022/02/03 20:40:44;;;;;;;4.75;2.65;;;;;;;;;;1738550;81;21471;-69
2022/02/03 20:43:10;;;;;;;5.87;3.72;;;;;;;;;;1739632;82;21004;-68
2022/02/03 20:45:37;;;;;;;3.37;2.30;;;;;;;;;;1744153;81;21008;-69
2022/02/03 20:48:03;;;;;;;6.72;3.83;;;;;;;;;;1705572;84;21618;-69
2022/02/03 20:50:29;;;;;;;6.28;3.15;;;;;;;;;;1710634;83;20987;-69
2022/02/03 20:52:55;;;;;;;9.05;5.00;;;;;;;;;;1676129;85;21595;-70
2022/02/03 20:55:21;;;;;;;5.97;3.62;;;;;;;;;;1706853;84;21056;-69
2022/02/03 20:57:47;;;;;;;5.47;2.95;;;;;;;;;;1708068;83;21555;-69
2022/02/03 21:00:22;;;;;;;5.62;3.42;;;;;;;;;;1707322;84;21048;-68
2022/02/03 21:03:02;;;;;;;3.87;2.47;;;;;;;;;;1707737;83;21531;-68
2022/02/03 21:05:20;;;;;;;4.75;3.02;;;;;;;;;;1713761;83;21006;-68
2022/02/03 21:07:48;;;;;;;4.28;2.98;;;;;;;;;;1718028;83;21045;-68
2022/02/03 21:10:17;;;;;;;5.92;2.67;;;;;;;;;;1705403;84;21077;-69
2022/02/03 21:12:43;;;;;;;4.80;3.10;;;;;;;;;;1697428;83;21640;-69
2022/02/03 21:15:10;;;;;;;5.62;3.55;;;;;;;;;;1701658;81;24189;-69
2022/02/03 21:17:36;;;;;;;6.25;3.22;;;;;;;;;;1719690;83;21027;-69
2022/02/03 21:20:16;;;;;;;5.10;3.22;;;;;;;;;;1711305;82;21067;-69
2022/02/03 21:22:40;;;;;;;7.28;3.90;;;;;;;;;;1721564;83;21004;-69
2022/02/03 21:25:15;;;;;;;5.12;3.20;;;;;;;;;;1722393;83;21088;-69
2022/02/03 21:27:36;;;;;;;6.35;3.62;;;;;;;;;;1720973;83;21063;-69
2022/02/03 21:30:06;;;;;;;6.22;3.15;;;;;;;;;;1717115;83;21040;-68
2022/02/03 21:32:31;;;;;;;5.60;3.60;;;;;;;;;;1722025;83;21083;-70
2022/02/03 21:34:56;;;;;;;4.70;2.40;;;;;;;;;;1721262;83;21599;-69
2022/02/03 21:37:23;;;;;;;7.78;4.00;;;;;;;;;;1723199;83;21581;-69
2022/02/03 21:39:54;;;;;;;6.53;3.90;;;;;;;;;;1695115;84;21032;-70
2022/02/03 21:42:16;;;;;;;4.95;2.85;;;;;;;;;;1703347;83;21529;-69
2022/02/03 21:44:42;;;;;;;5.60;3.52;;;;;;;;;;1699032;83;21008;-69
2022/02/03 21:47:08;;;;;;;6.22;3.80;;;;;;;;;;1714594;83;21109;-69
2022/02/03 21:49:34;;;;;;;3.50;2.50;;;;;;;;;;1685323;84;21545;-70
2022/02/03 21:52:00;;;;;;;5.60;3.50;;;;;;;;;;1676791;85;20970;-68
2022/02/03 21:54:33;;;;;;;4.42;2.90;;;;;;;;;;1712653;83;21473;-69
2022/02/03 21:56:57;;;;;;;6.22;3.55;;;;;;;;;;1721537;83;21052;-70
2022/02/03 21:59:23;;;;;;;6.58;3.12;;;;;;;;;;1736092;82;21729;-69
2022/02/03 22:01:49;;;;;;;6.47;3.72;;;;;;;;;;1723919;83;21034;-69
2022/02/03 22:04:15;;;;;;;8.18;3.90;;;;;;;;;;1697630;84;21575;-69
2022/02/03 22:06:40;;;;;;;10.38;4.47;;;;;;;;;;1694977;84;21077;-69
2022/02/03 22:09:06;;;;;;;10.18;4.92;;;;;;;;;;1694803;85;21021;-69
2022/02/03 22:11:32;;;;;;;8.18;4.87;;;;;;;;;;1689558;85;21516;-69
2022/02/03 22:14:00;;;;;;;7.08;4.03;;;;;;;;;;1724056;83;21059;-69
2022/02/03 22:46:24;;;;;;;8.08;3.92;;;;;;;;;;1789910;80;20996;-69
2022/02/03 22:48:38;;;;;;;7.72;4.12;;;;;;;;;;1788797;80;21560;-69
2022/02/03 22:51:04;;;;;;;7.60;4.42;;;;;;;;;;1788118;80;21019;-70
2022/02/03 22:53:35;;;;;;;7.58;4.72;;;;;;;;;;1761992;80;21031;-70
2022/02/03 22:56:02;;;;;;;9.23;4.55;;;;;;;;;;1785574;80;21037;-68
2022/02/03 22:58:58;;;;;;;7.35;3.55;;;;;;;;;;1792400;80;20984;-68
2022/02/03 23:01:00;;;;;;;9.63;4.90;;;;;;;;;;1772348;80;20974;-69
2022/02/03 23:03:31;;;;;;;8.85;4.78;;;;;;;;;;1769427;80;21289;-68
2022/02/03 23:05:58;;;;;;;6.53;3.42;;;;;;;;;;1781564;80;21032;-68
2022/02/03 23:08:38;;;;;;;8.55;4.70;;;;;;;;;;1791784;80;21017;-68
2022/02/03 23:16:40;;;;;;;7.10;4.22;;;;;;;;;;1781350;80;21028;-68
2022/02/03 23:19:01;;;;;;;7.65;3.15;;;;;;;;;;1779416;80;21104;-69
2022/02/03 23:21:45;;;;;;;7.97;4.65;;;;;;;;;;1758138;81;21597;-69
2022/02/03 23:23:57;;;;;;;8.68;4.40;;;;;;;;;;1752120;81;21083;-68
2022/02/03 23:26:26;;;;;;;7.45;3.55;;;;;;;;;;1750941;81;21064;-68
2022/02/03 23:28:57;;;;;;;9.95;4.92;;;;;;;;;;1754439;81;21555;-68
2022/02/03 23:31:20;;;;;;;7.62;4.30;;;;;;;;;;1756777;81;21036;-68
2022/02/03 23:33:47;;;;;;;6.35;3.20;;;;;;;;;;1757176;81;21072;-68
2022/02/03 23:36:13;;;;;;;8.28;4.87;;;;;;;;;;1746373;82;21076;-68
2022/02/03 23:38:57;;;;;;;7.75;3.58;;;;;;;;;;1756855;81;21016;-68
